createdAt,value
2018-04-10T00:00:54.085Z,9.78
2018-04-10T00:06:44.681Z,9.22
2018-04-10T00:12:35.439Z,8.32
2018-04-10T00:18:26.038Z,7.82
2018-04-10T00:24:16.729Z,7.47
2018-04-10T00:30:07.320Z,11.64
2018-04-10T00:35:58.037Z,10.07
2018-04-10T00:41:48.695Z,9.39
2018-04-10T00:47:39.346Z,8.06
2018-04-10T00:53:29.986Z,9.16
2018-04-10T00:59:20.670Z,7.84
2018-04-10T01:05:11.278Z,7.84
2018-04-10T01:11:01.951Z,8.48
2018-04-10T01:16:52.613Z,7.51
2018-04-10T01:22:43.253Z,6.74
2018-04-10T01:28:33.898Z,7.31
2018-04-10T01:34:24.563Z,6.71
2018-04-10T01:40:15.209Z,6.44
2018-04-10T01:46:05.942Z,8.76
2018-04-10T01:51:56.542Z,8.35
2018-04-10T01:57:47.165Z,7.59
2018-04-10T02:03:37.868Z,10.61
2018-04-10T02:15:19.184Z,6.45
2018-04-10T02:21:09.797Z,8.89
2018-04-10T02:27:00.469Z,14.41
2018-04-10T02:32:51.087Z,8.96
2018-04-10T02:38:41.734Z,4.87
2018-04-10T02:44:32.379Z,8.57
2018-04-10T02:50:23.035Z,6.48
2018-04-10T02:56:13.699Z,10.44
2018-04-10T03:02:04.412Z,5.5
2018-04-10T03:07:55.001Z,6.31
2018-04-10T03:13:45.680Z,14.76
2018-04-10T03:19:36.302Z,12.11
2018-04-10T03:25:26.918Z,12.12
2018-04-10T03:31:17.579Z,9.1
2018-04-10T03:37:08.217Z,6.43
2018-04-10T03:42:58.876Z,8.78
2018-04-10T03:48:49.493Z,4.81
2018-04-10T03:54:40.149Z,8.24
2018-04-10T04:00:30.805Z,7.45
2018-04-10T04:06:21.444Z,10.85
2018-04-10T04:12:12.095Z,4.6
2018-04-10T04:18:02.751Z,7.46
2018-04-10T04:23:53.397Z,7.32
2018-04-10T04:29:44.099Z,9.6
2018-04-10T04:35:34.685Z,7.53
2018-04-10T04:41:25.380Z,4.42
2018-04-10T04:47:15.950Z,10.15
2018-04-10T04:53:06.611Z,5.66
2018-04-10T04:58:57.231Z,8.2
2018-04-10T05:04:47.940Z,7.71
2018-04-10T05:10:38.539Z,5.89
2018-04-10T05:16:29.183Z,5.31
2018-04-10T05:22:19.807Z,7.64
2018-04-10T05:28:10.577Z,7.63
2018-04-10T05:34:01.183Z,8.73
2018-04-10T05:39:51.751Z,7.87
2018-04-10T05:45:42.441Z,7.93
2018-04-10T05:51:33.081Z,7.56
2018-04-10T05:57:23.697Z,8.81
2018-04-10T06:03:14.360Z,9.15
2018-04-10T06:09:05.020Z,11.71
2018-04-10T06:14:55.628Z,12.28
2018-04-10T06:20:46.336Z,9.25
2018-04-10T06:26:36.964Z,5.41
2018-04-10T06:32:27.596Z,6.06
2018-04-10T06:38:18.282Z,9.5
2018-04-10T06:44:08.886Z,10.02
2018-04-10T06:49:59.602Z,9.62
2018-04-10T06:55:50.225Z,7.52
2018-04-10T07:01:40.899Z,8.94
2018-04-10T07:07:31.508Z,6.29
2018-04-10T07:13:22.268Z,7.96
2018-04-10T07:19:12.847Z,6.01
2018-04-10T07:25:03.523Z,3.94
2018-04-10T07:30:54.151Z,5.69
2018-04-10T07:36:44.824Z,8.81
2018-04-10T07:42:35.487Z,5.79
2018-04-10T07:48:26.213Z,4.06
2018-04-10T07:54:16.860Z,6.66
2018-04-10T08:00:07.517Z,6.39
2018-04-10T08:05:58.243Z,3.85
2018-04-10T08:11:48.839Z,4.69
2018-04-10T08:17:39.530Z,4.28
2018-04-10T08:23:30.191Z,11.56
2018-04-10T08:29:20.884Z,5.24
2018-04-10T08:35:11.597Z,3.89
2018-04-10T08:41:02.253Z,6.48
2018-04-10T08:46:52.931Z,5.65
2018-04-10T08:52:43.590Z,8.13
2018-04-10T08:58:34.269Z,4.12
2018-04-10T09:04:24.976Z,7.24
2018-04-10T09:10:15.655Z,6.68
2018-04-10T09:16:06.337Z,4.89
2018-04-10T09:21:57.014Z,5.6
2018-04-10T09:27:47.712Z,9.13
2018-04-10T09:33:38.374Z,9.98
2018-04-10T09:39:29.056Z,4.55
2018-04-10T09:45:19.806Z,7.99
2018-04-10T09:51:10.413Z,3.84
2018-04-10T09:57:01.103Z,5.11
2018-04-10T10:08:42.435Z,5.03
2018-04-10T10:14:33.134Z,8.77
2018-04-10T10:20:23.815Z,8.11
2018-04-10T10:26:14.458Z,12.68
2018-04-10T10:32:05.136Z,9.79
2018-04-10T10:37:55.819Z,10.35
2018-04-10T10:43:46.477Z,9.14
2018-04-10T10:49:37.139Z,14.88
2018-04-10T10:55:27.802Z,8.58
2018-04-10T11:01:18.486Z,9.66
2018-04-10T11:07:09.158Z,7
2018-04-10T11:12:59.817Z,7.23
2018-04-10T11:18:50.489Z,11.05
2018-04-10T11:24:41.175Z,7.78
2018-04-10T11:30:31.843Z,7.14
2018-04-10T11:36:22.508Z,12.25
2018-04-10T11:42:13.165Z,5.93
2018-04-10T11:48:03.847Z,7.21
2018-04-10T11:53:54.460Z,12.95
2018-04-10T11:59:45.179Z,12.49
2018-04-10T12:05:35.827Z,12.14
2018-04-10T12:11:26.459Z,11.73
2018-04-10T12:17:17.125Z,12.68
2018-04-10T12:23:07.824Z,15.62
2018-04-10T12:28:58.434Z,18.01
2018-04-10T12:34:49.109Z,13.18
2018-04-10T12:40:39.893Z,14.54
2018-04-10T12:46:30.421Z,15.91
2018-04-10T12:52:21.108Z,23.14
2018-04-10T12:58:11.797Z,15.67
2018-04-10T13:04:02.414Z,16.94
2018-04-10T13:09:53.084Z,21.95
2018-04-10T13:15:43.782Z,19.88
2018-04-10T13:21:34.403Z,15.21
2018-04-10T13:27:25.062Z,12.21
2018-04-10T13:33:15.717Z,12.36
2018-04-10T13:39:06.423Z,6.25
2018-04-10T13:44:57.034Z,4.53
2018-04-10T13:50:47.696Z,8.85
2018-04-10T13:56:38.362Z,12.98
2018-04-10T14:02:29.030Z,6.42
2018-04-10T14:08:19.662Z,6.84
2018-04-10T14:14:10.310Z,9.7
2018-04-10T14:20:01.012Z,7.32
2018-04-10T14:25:51.584Z,8.23
2018-04-10T14:31:42.308Z,4.42
2018-04-10T14:37:32.957Z,6.06
2018-04-10T14:43:23.533Z,11.35
2018-04-10T14:49:14.204Z,5.13
2018-04-10T14:55:04.842Z,2.05
2018-04-10T15:00:55.468Z,1.72
2018-04-10T15:06:46.171Z,7.43
2018-04-10T15:12:36.767Z,2.37
2018-04-10T15:18:27.502Z,1.94
2018-04-10T15:24:18.096Z,3.29
2018-04-10T15:30:08.691Z,3.59
2018-04-10T15:35:59.350Z,2.35
2018-04-10T15:41:50.037Z,3.17
2018-04-10T15:47:40.649Z,5.36
2018-04-10T15:53:31.270Z,4.76
2018-04-10T15:59:21.938Z,10.9
2018-04-10T16:05:12.549Z,9.62
2018-04-10T16:11:03.205Z,9.75
2018-04-10T16:16:53.882Z,9.14
2018-04-10T16:22:44.518Z,7.79
2018-04-10T16:28:35.151Z,7.27
2018-04-10T16:34:25.809Z,10.27
2018-04-10T16:40:16.479Z,8.3
2018-04-10T16:46:07.152Z,7.51
2018-04-10T16:51:57.736Z,7.91
2018-04-10T16:57:48.430Z,2.41
2018-04-10T17:03:39.057Z,6.13
2018-04-10T17:09:29.662Z,4.12
2018-04-10T17:15:20.301Z,9.36
2018-04-10T17:21:11.033Z,2.24
2018-04-10T17:27:01.634Z,2.01
2018-04-10T17:32:52.292Z,4.6
2018-04-10T17:38:42.894Z,4.78
2018-04-10T17:44:33.588Z,4.42
2018-04-10T17:50:24.303Z,5.07
2018-04-10T17:56:14.859Z,4.32
2018-04-10T18:02:05.501Z,2.21
2018-04-10T18:07:56.150Z,4.03
2018-04-10T18:13:46.804Z,8.01
2018-04-10T18:19:37.501Z,8.89
2018-04-10T18:25:28.052Z,7.43
2018-04-10T18:31:18.693Z,9.33
2018-04-10T18:37:09.361Z,11.06
2018-04-10T18:43:00.017Z,13.7
2018-04-10T18:48:50.684Z,15.65
2018-04-10T18:54:41.303Z,9.04
2018-04-10T19:00:32.019Z,8.26
2018-04-10T19:06:22.632Z,9.55
2018-04-10T19:12:13.272Z,3.76
2018-04-10T19:18:04.043Z,6.99
2018-04-10T19:23:54.574Z,6.06
2018-04-10T19:29:45.232Z,7.09
2018-04-10T19:35:35.885Z,9.7
2018-04-10T19:41:26.510Z,6.02
2018-04-10T19:47:17.149Z,10.66
2018-04-10T19:53:07.833Z,8.35
2018-04-10T19:58:58.466Z,9.71
2018-04-10T20:04:49.162Z,13.08
2018-04-10T20:10:39.812Z,12.44
2018-04-10T20:16:30.420Z,20.02
2018-04-10T20:22:21.092Z,8.74
2018-04-10T20:28:11.722Z,6.02
2018-04-10T20:34:02.372Z,9.91
2018-04-10T20:39:53.067Z,12.4
2018-04-10T20:45:43.662Z,17.98
2018-04-10T20:51:34.343Z,11.3
2018-04-10T20:57:25.020Z,13.05
2018-04-10T21:03:15.627Z,17.23
2018-04-10T21:09:06.270Z,10.42
2018-04-10T21:14:56.947Z,14.63
2018-04-10T21:20:47.611Z,10.52
2018-04-10T21:26:38.243Z,11.43
2018-04-10T21:32:28.904Z,14.68
2018-04-10T21:38:19.552Z,12.6
2018-04-10T21:44:10.217Z,12.39
2018-04-10T21:50:00.847Z,15.49
2018-04-10T21:55:51.518Z,13.58
2018-04-10T22:01:42.157Z,19.62
2018-04-10T22:08:54.625Z,14.17
2018-04-10T22:14:45.173Z,13.85
2018-04-10T22:20:35.862Z,15.82
2018-04-10T22:26:26.534Z,14.3
2018-04-10T22:32:17.151Z,20.67
2018-04-10T22:38:07.778Z,20.31
2018-04-10T22:43:58.464Z,22.73
2018-04-10T22:49:49.061Z,16.73
2018-04-10T22:55:39.769Z,17.63
2018-04-10T23:01:30.360Z,24.41
2018-04-10T23:07:21.030Z,17.12
2018-04-10T23:13:11.666Z,19.9
2018-04-10T23:19:02.363Z,19.54
2018-04-10T23:24:52.941Z,21.86
2018-04-10T23:30:43.675Z,20.5
2018-04-10T23:36:34.314Z,23.51
2018-04-10T23:42:24.968Z,23.9
2018-04-10T23:48:15.592Z,22.76
2018-04-10T23:54:06.272Z,23.21
2018-04-10T23:59:56.908Z,25.42
